createdAt,value
2017-12-22T00:01:00.950Z,9.90
2017-12-22T00:03:28.411Z,9.50
2017-12-22T00:05:55.852Z,9.03
2017-12-22T00:08:23.610Z,9.20
2017-12-22T00:10:51.065Z,10.73
2017-12-22T00:13:18.517Z,11.63
2017-12-22T00:15:47.246Z,11.33
2017-12-22T00:18:14.704Z,11.23
2017-12-22T00:20:42.153Z,10.07
2017-12-22T00:23:09.932Z,10.37
2017-12-22T00:25:37.388Z,10.30
2017-12-22T00:28:07.397Z,11.10
2017-12-22T00:30:35.204Z,10.83
2017-12-22T00:33:02.670Z,11.33
2017-12-22T00:35:30.145Z,13.90
2017-12-22T00:37:57.773Z,12.80
2017-12-22T00:40:25.225Z,13.53
2017-12-22T00:42:52.700Z,13.27
2017-12-22T00:45:20.444Z,13.33
2017-12-22T00:47:47.899Z,11.57
2017-12-22T00:50:15.357Z,10.67
2017-12-22T00:52:43.175Z,10.47
2017-12-22T00:55:10.642Z,12.83
2017-12-22T00:57:38.102Z,12.43
2017-12-22T01:00:05.828Z,14.87
2017-12-22T01:02:33.297Z,13.60
2017-12-22T01:05:00.754Z,15.60
2017-12-22T01:07:29.431Z,16.30
2017-12-22T01:09:56.896Z,16.80
2017-12-22T01:12:24.357Z,17.50
2017-12-22T01:14:52.126Z,17.60
2017-12-22T01:17:25.214Z,19.20
2017-12-22T01:19:52.698Z,19.97
2017-12-22T01:22:20.636Z,20.67
2017-12-22T01:24:48.106Z,18.70
2017-12-22T01:27:15.567Z,20.90
2017-12-22T01:29:44.253Z,21.13
2017-12-22T01:32:11.721Z,19.40
2017-12-22T01:34:39.189Z,18.93
2017-12-22T01:37:08.231Z,21.77
2017-12-22T01:39:35.693Z,21.93
2017-12-22T01:42:03.144Z,21.47
2017-12-22T01:44:30.858Z,24.97
2017-12-22T01:46:58.329Z,24.03
2017-12-22T01:49:25.785Z,24.53
2017-12-22T01:51:53.529Z,25.70
2017-12-22T01:54:20.985Z,24.53
2017-12-22T01:56:48.445Z,28.03
2017-12-22T01:59:16.230Z,27.10
2017-12-22T02:01:43.682Z,26.83
2017-12-22T02:04:11.141Z,23.50
2017-12-22T02:06:38.907Z,25.70
2017-12-22T02:09:06.357Z,25.27
2017-12-22T02:11:33.810Z,26.53
2017-12-22T02:14:01.592Z,26.70
2017-12-22T02:16:29.059Z,23.23
2017-12-22T02:18:56.522Z,22.40
2017-12-22T02:21:24.245Z,24.00
2017-12-22T02:23:51.717Z,21.67
2017-12-22T02:26:19.186Z,23.23
2017-12-22T02:28:46.973Z,21.93
2017-12-22T02:31:14.809Z,20.07
2017-12-22T02:33:42.265Z,20.83
2017-12-22T02:36:10.139Z,20.57
2017-12-22T02:38:37.599Z,21.87
2017-12-22T02:41:05.057Z,23.47
2017-12-22T02:43:32.958Z,22.10
2017-12-22T02:46:00.414Z,23.40
2017-12-22T02:48:27.863Z,24.43
2017-12-22T02:50:55.657Z,26.27
2017-12-22T02:53:23.121Z,28.27
2017-12-22T02:55:50.569Z,26.30
2017-12-22T02:58:18.338Z,28.47
2017-12-22T03:00:45.797Z,26.87
2017-12-22T03:03:13.253Z,26.43
2017-12-22T03:05:40.969Z,26.03
2017-12-22T03:08:08.434Z,28.00
2017-12-22T03:10:35.904Z,21.73
2017-12-22T03:13:03.784Z,24.03
2017-12-22T03:15:31.244Z,24.20
2017-12-22T03:17:58.696Z,27.00
2017-12-22T03:20:26.704Z,25.80
2017-12-22T03:22:54.165Z,24.67
2017-12-22T03:25:21.621Z,24.30
2017-12-22T03:27:49.689Z,23.63
2017-12-22T03:30:17.145Z,24.17
2017-12-22T03:32:45.300Z,21.07
2017-12-22T03:35:13.310Z,23.20
2017-12-22T03:37:40.761Z,24.17
2017-12-22T03:40:08.233Z,20.60
2017-12-22T03:42:35.869Z,20.30
2017-12-22T03:45:03.808Z,17.37
2017-12-22T03:47:31.277Z,17.73
2017-12-22T03:49:59.293Z,17.43
2017-12-22T03:52:26.757Z,17.47
2017-12-22T03:54:54.220Z,17.40
2017-12-22T03:57:22.529Z,15.80
2017-12-22T03:59:50.000Z,16.07
2017-12-22T04:02:17.462Z,14.77
2017-12-22T04:04:45.286Z,17.70
2017-12-22T04:07:12.745Z,16.13
2017-12-22T04:09:40.204Z,15.47
2017-12-22T04:12:07.972Z,14.33
2017-12-22T04:14:35.434Z,13.63
2017-12-22T04:17:03.243Z,14.33
2017-12-22T04:19:30.961Z,14.10
2017-12-22T04:21:58.412Z,13.80
2017-12-22T04:24:25.867Z,14.93
2017-12-22T04:26:53.958Z,11.90
2017-12-22T04:29:21.415Z,12.63
2017-12-22T04:31:48.878Z,12.87
2017-12-22T04:34:17.957Z,12.50
2017-12-22T04:36:45.414Z,12.07
2017-12-22T04:39:12.877Z,10.53
2017-12-22T04:41:40.692Z,10.43
2017-12-22T04:44:08.137Z,10.63
2017-12-22T04:46:35.597Z,11.20
2017-12-22T04:49:03.561Z,9.90
2017-12-22T04:51:31.021Z,9.97
2017-12-22T04:53:58.481Z,10.63
2017-12-22T04:56:26.545Z,10.73
2017-12-22T04:58:54.014Z,12.30
2017-12-22T05:01:21.468Z,11.97
2017-12-22T05:03:49.241Z,12.73
2017-12-22T05:06:16.694Z,12.70
2017-12-22T05:08:44.161Z,15.63
2017-12-22T05:11:11.913Z,14.63
2017-12-22T05:13:39.365Z,12.80
2017-12-22T05:16:06.826Z,13.10
2017-12-22T05:18:34.609Z,12.47
2017-12-22T05:21:02.064Z,22.47
2017-12-22T05:23:29.527Z,14.40
2017-12-22T05:25:57.481Z,11.40
2017-12-22T05:35:08.425Z,7.30
2017-12-22T05:37:35.881Z,9.23
2017-12-22T05:40:03.329Z,9.73
2017-12-22T05:42:31.109Z,9.90
2017-12-22T05:44:58.564Z,10.27
2017-12-22T05:47:26.020Z,10.70
2017-12-22T05:49:53.813Z,11.50
2017-12-22T05:52:21.271Z,10.37
2017-12-22T05:54:48.734Z,10.67
2017-12-22T05:57:16.505Z,10.00
2017-12-22T05:59:43.966Z,10.40
2017-12-22T06:02:11.421Z,9.80
2017-12-22T06:04:39.190Z,8.90
2017-12-22T06:07:06.642Z,8.30
2017-12-22T06:09:34.109Z,9.37
2017-12-22T06:12:01.861Z,9.57
2017-12-22T06:14:29.312Z,9.10
2017-12-22T06:16:56.759Z,10.30
2017-12-22T06:19:24.546Z,10.37
2017-12-22T06:21:52.001Z,10.00
2017-12-22T06:24:19.460Z,10.47
2017-12-22T06:26:47.549Z,9.80
2017-12-22T06:29:15.013Z,10.60
2017-12-22T06:31:42.475Z,10.70
2017-12-22T06:34:10.224Z,13.20
2017-12-22T06:36:38.380Z,12.10
2017-12-22T06:39:05.829Z,12.13
2017-12-22T06:41:33.660Z,11.93
2017-12-22T06:44:01.113Z,12.03
2017-12-22T06:46:28.566Z,12.90
2017-12-22T06:48:56.516Z,11.77
2017-12-22T06:51:23.971Z,16.65
2017-12-22T06:53:51.425Z,13.80
2017-12-22T06:56:19.094Z,12.60
2017-12-22T06:58:46.549Z,14.97
2017-12-22T07:01:14.014Z,11.87
2017-12-22T07:03:41.920Z,16.65
2017-12-22T07:06:09.390Z,13.90
2017-12-22T07:08:36.992Z,11.47
2017-12-22T07:11:04.902Z,11.17
2017-12-22T07:13:32.362Z,9.80
2017-12-22T07:15:59.827Z,11.10
2017-12-22T07:18:27.588Z,10.87
2017-12-22T07:20:55.052Z,10.27
2017-12-22T07:23:22.516Z,10.70
2017-12-22T07:25:50.269Z,10.60
2017-12-22T07:28:17.734Z,11.50
2017-12-22T07:30:45.204Z,9.93
2017-12-22T07:33:12.965Z,11.03
2017-12-22T07:35:40.425Z,11.90
2017-12-22T07:38:07.965Z,10.33
2017-12-22T07:40:35.681Z,11.20
2017-12-22T07:43:03.146Z,12.53
2017-12-22T07:45:30.610Z,13.53
2017-12-22T07:47:58.660Z,11.77
2017-12-22T07:50:26.121Z,13.00
2017-12-22T07:52:53.586Z,12.93
2017-12-22T07:55:21.548Z,13.40
2017-12-22T07:57:49.009Z,14.00
2017-12-22T08:00:16.468Z,14.87
2017-12-22T08:02:44.280Z,14.70
2017-12-22T08:05:11.741Z,16.37
2017-12-22T08:07:39.223Z,15.63
2017-12-22T08:10:07.005Z,19.10
2017-12-22T08:12:34.461Z,17.40
2017-12-22T08:15:02.409Z,16.57
2017-12-22T08:17:30.022Z,19.10
2017-12-22T08:19:57.475Z,19.47
2017-12-22T08:22:24.950Z,20.90
2017-12-22T08:24:52.993Z,19.10
2017-12-22T08:27:20.462Z,19.83
2017-12-22T08:29:47.929Z,20.03
2017-12-22T08:32:16.007Z,19.23
2017-12-22T08:34:43.473Z,22.00
2017-12-22T08:37:10.939Z,21.23
2017-12-22T08:39:39.621Z,19.20
2017-12-22T08:42:07.084Z,23.77
2017-12-22T08:44:34.542Z,20.90
2017-12-22T08:47:02.289Z,22.87
2017-12-22T08:49:29.777Z,23.10
2017-12-22T08:51:57.248Z,23.90
2017-12-22T08:54:24.881Z,21.70
2017-12-22T08:56:52.340Z,22.47
2017-12-22T08:59:19.802Z,25.10
2017-12-22T09:01:47.666Z,21.20
2017-12-22T09:04:15.117Z,25.17
2017-12-22T09:06:42.576Z,25.00
2017-12-22T09:09:10.337Z,23.10
2017-12-22T09:11:38.302Z,24.47
2017-12-22T09:14:05.755Z,25.13
2017-12-22T09:16:33.963Z,24.13
2017-12-22T09:19:01.454Z,23.87
2017-12-22T09:21:28.904Z,24.10
2017-12-22T09:23:56.974Z,27.33
2017-12-22T09:26:24.433Z,27.07
2017-12-22T09:28:52.603Z,27.67
2017-12-22T09:31:20.570Z,26.83
2017-12-22T09:33:48.020Z,28.70
2017-12-22T09:36:15.481Z,27.33
2017-12-22T09:38:43.272Z,30.37
2017-12-22T09:41:11.458Z,26.70
2017-12-22T09:43:38.938Z,31.43
2017-12-22T09:46:06.822Z,30.70
2017-12-22T09:48:34.360Z,27.80
2017-12-22T09:51:01.878Z,28.10
2017-12-22T09:53:30.167Z,31.60
2017-12-22T09:55:57.628Z,31.43
2017-12-22T09:58:25.139Z,30.90
2017-12-22T10:00:52.846Z,31.70
2017-12-22T10:03:20.306Z,30.27
2017-12-22T10:05:47.781Z,29.87
2017-12-22T10:08:15.834Z,30.60
2017-12-22T10:10:43.293Z,32.10
2017-12-22T10:13:10.748Z,31.30
2017-12-22T10:15:38.550Z,31.87
2017-12-22T10:18:06.008Z,31.10
2017-12-22T10:20:33.472Z,33.83
2017-12-22T10:23:01.106Z,31.17
2017-12-22T10:25:28.557Z,33.23
2017-12-22T10:27:56.028Z,33.90
2017-12-22T10:30:24.043Z,38.77
2017-12-22T10:32:51.507Z,42.17
2017-12-22T10:35:19.176Z,37.60
2017-12-22T10:37:46.893Z,41.70
2017-12-22T10:40:14.344Z,44.17
2017-12-22T10:42:42.193Z,40.97
2017-12-22T10:45:10.373Z,41.43
2017-12-22T10:47:38.009Z,43.87
2017-12-22T10:50:05.470Z,41.00
2017-12-22T10:52:33.203Z,40.70
2017-12-22T10:55:00.660Z,42.27
2017-12-22T10:57:28.225Z,42.00
2017-12-22T10:59:55.865Z,40.40
2017-12-22T11:02:23.325Z,42.10
2017-12-22T11:04:50.777Z,39.47
2017-12-22T11:07:18.555Z,38.27
2017-12-22T11:09:46.019Z,38.00
2017-12-22T11:12:13.487Z,40.43
2017-12-22T11:14:41.274Z,37.67
2017-12-22T11:17:09.503Z,35.07
2017-12-22T11:19:36.964Z,34.60
2017-12-22T11:22:04.808Z,35.03
2017-12-22T11:24:32.325Z,35.60
2017-12-22T11:27:00.136Z,35.30
2017-12-22T11:29:28.162Z,36.30
2017-12-22T11:31:55.620Z,35.60
2017-12-22T11:34:23.082Z,34.97
2017-12-22T11:36:51.156Z,35.50
2017-12-22T11:39:18.619Z,37.80
2017-12-22T11:41:46.072Z,39.10
2017-12-22T11:44:13.867Z,37.37
2017-12-22T11:46:41.358Z,40.30
2017-12-22T11:49:08.819Z,41.07
2017-12-22T11:51:36.842Z,41.10
2017-12-22T11:54:04.317Z,40.23
2017-12-22T11:56:31.785Z,38.50
2017-12-22T11:58:59.519Z,39.23
2017-12-22T12:01:26.985Z,36.77
2017-12-22T12:03:54.445Z,34.43
2017-12-22T12:06:22.261Z,38.10
2017-12-22T12:08:49.716Z,37.07
2017-12-22T12:11:17.176Z,32.27
2017-12-22T12:13:44.904Z,31.13
2017-12-22T12:16:12.366Z,30.47
2017-12-22T12:18:39.825Z,30.07
2017-12-22T12:21:07.581Z,30.70
2017-12-22T12:23:35.037Z,28.33
2017-12-22T12:26:02.497Z,29.73
2017-12-22T12:28:30.270Z,28.70
2017-12-22T12:30:57.739Z,28.40
2017-12-22T12:33:25.220Z,30.10
2017-12-22T12:35:52.961Z,34.10
2017-12-22T12:38:20.420Z,29.53
2017-12-22T12:40:47.887Z,28.67
2017-12-22T12:43:16.015Z,30.37
2017-12-22T12:45:43.991Z,27.60
2017-12-22T12:48:11.454Z,28.67
2017-12-22T12:50:39.214Z,27.07
2017-12-22T12:53:06.672Z,27.60
2017-12-22T12:55:34.129Z,30.57
2017-12-22T12:58:01.940Z,30.63
2017-12-22T13:00:29.393Z,29.60
2017-12-22T13:02:56.850Z,32.20
2017-12-22T13:05:24.943Z,27.83
2017-12-22T13:07:52.402Z,27.33
2017-12-22T13:10:19.863Z,28.63
2017-12-22T13:12:47.492Z,27.47
2017-12-22T13:15:14.944Z,26.57
2017-12-22T13:17:42.409Z,31.63
2017-12-22T13:20:10.315Z,30.20
2017-12-22T13:22:37.816Z,28.00
2017-12-22T13:25:05.562Z,27.97
2017-12-22T13:27:33.311Z,28.10
2017-12-22T13:30:00.765Z,30.30
2017-12-22T13:32:28.233Z,27.27
2017-12-22T13:34:55.956Z,28.67
2017-12-22T13:37:23.415Z,23.37
2017-12-22T13:39:50.882Z,25.20
2017-12-22T13:42:18.685Z,26.23
2017-12-22T13:44:46.187Z,24.20
2017-12-22T13:47:16.450Z,27.20
2017-12-22T13:49:44.186Z,26.70
2017-12-22T13:52:11.637Z,28.10
2017-12-22T13:54:39.364Z,31.47
2017-12-22T13:57:06.972Z,31.80
2017-12-22T13:59:34.443Z,28.57
2017-12-22T14:02:01.910Z,25.50
2017-12-22T14:04:29.820Z,24.70
2017-12-22T14:06:57.273Z,23.57
2017-12-22T14:09:24.733Z,24.17
2017-12-22T14:11:52.572Z,22.80
2017-12-22T14:14:20.042Z,28.00
2017-12-22T14:16:47.498Z,24.87
2017-12-22T14:19:15.505Z,23.47
2017-12-22T14:21:43.432Z,25.03
2017-12-22T14:24:10.877Z,26.07
2017-12-22T14:26:38.790Z,25.90
2017-12-22T14:29:06.250Z,24.50
2017-12-22T14:31:33.701Z,29.27
2017-12-22T14:34:01.518Z,26.27
2017-12-22T14:36:28.954Z,27.67
2017-12-22T14:38:56.420Z,27.23
2017-12-22T14:41:24.159Z,28.10
2017-12-22T14:43:51.614Z,25.63
2017-12-22T14:46:19.077Z,33.05
2017-12-22T14:48:47.461Z,28.43
2017-12-22T14:51:14.913Z,25.43
2017-12-22T14:53:42.369Z,25.80
2017-12-22T14:56:10.160Z,28.97
2017-12-22T14:58:37.621Z,25.83
2017-12-22T15:01:05.097Z,25.40
2017-12-22T15:03:32.819Z,23.77
2017-12-22T15:06:00.289Z,26.83
2017-12-22T15:08:27.756Z,26.17
2017-12-22T15:10:55.532Z,29.00
2017-12-22T15:13:23.004Z,23.40
2017-12-22T15:15:50.457Z,24.83
2017-12-22T15:18:18.224Z,26.13
2017-12-22T15:20:46.040Z,21.47
2017-12-22T15:23:13.494Z,23.87
2017-12-22T15:25:41.515Z,24.17
2017-12-22T15:28:08.969Z,23.13
2017-12-22T15:30:36.429Z,24.97
2017-12-22T15:33:04.203Z,24.70
2017-12-22T15:35:32.019Z,24.53
2017-12-22T15:37:59.479Z,25.00
2017-12-22T15:40:27.193Z,25.47
2017-12-22T15:42:54.649Z,27.70
2017-12-22T15:45:22.101Z,27.30
2017-12-22T15:47:49.842Z,27.20
2017-12-22T15:50:18.037Z,25.37
2017-12-22T15:52:45.509Z,70.53
2017-12-22T15:55:13.385Z,29.47
2017-12-22T15:57:40.840Z,26.50
2017-12-22T16:00:08.293Z,27.20
2017-12-22T16:02:36.192Z,27.80
2017-12-22T16:05:03.704Z,32.45
2017-12-22T16:07:32.130Z,25.50
2017-12-22T16:10:00.105Z,26.97
2017-12-22T16:12:27.560Z,30.10
2017-12-22T16:14:55.027Z,27.43
2017-12-22T16:17:23.393Z,26.50
2017-12-22T16:19:50.866Z,24.97
2017-12-22T16:22:18.329Z,26.50
2017-12-22T16:24:46.082Z,24.00
2017-12-22T16:27:13.545Z,26.60
2017-12-22T16:29:41.010Z,24.77
2017-12-22T16:32:08.777Z,24.60
2017-12-22T16:34:36.252Z,24.70
2017-12-22T16:37:03.728Z,22.93
2017-12-22T16:39:31.677Z,22.63
2017-12-22T16:41:59.141Z,24.03
2017-12-22T16:44:26.597Z,24.80
2017-12-22T16:46:54.462Z,24.53
2017-12-22T16:49:21.920Z,26.70
2017-12-22T16:51:50.066Z,26.00
2017-12-22T16:54:18.061Z,26.57
2017-12-22T16:56:45.528Z,27.20
2017-12-22T16:59:12.997Z,24.20
2017-12-22T17:01:41.357Z,25.50
2017-12-22T17:04:08.829Z,26.53
2017-12-22T17:06:36.286Z,28.37
2017-12-22T17:09:04.372Z,23.87
2017-12-22T17:11:31.838Z,25.23
2017-12-22T17:13:59.297Z,23.20
2017-12-22T17:16:27.054Z,22.77
2017-12-22T17:18:54.513Z,24.10
2017-12-22T17:21:21.973Z,21.53
2017-12-22T17:23:49.731Z,23.43
2017-12-22T17:26:17.185Z,24.03
2017-12-22T17:28:44.644Z,21.77
2017-12-22T17:31:12.418Z,21.17
2017-12-22T17:33:39.880Z,22.20
2017-12-22T17:36:07.341Z,24.60
2017-12-22T17:38:35.424Z,21.90
2017-12-22T17:41:02.886Z,22.60
2017-12-22T17:43:30.350Z,21.03
2017-12-22T17:45:58.402Z,22.17
2017-12-22T17:48:25.857Z,22.80
2017-12-22T17:50:53.314Z,21.00
2017-12-22T17:53:22.021Z,20.93
2017-12-22T17:55:49.476Z,18.50
2017-12-22T17:58:16.937Z,17.07
2017-12-22T18:00:44.721Z,17.40
2017-12-22T18:03:12.180Z,18.60
2017-12-22T18:05:39.977Z,18.73
2017-12-22T18:08:08.006Z,17.70
2017-12-22T18:10:35.685Z,17.97
2017-12-22T18:13:03.224Z,18.60
2017-12-22T18:15:31.003Z,22.33
2017-12-22T18:17:58.471Z,16.03
2017-12-22T18:20:25.922Z,15.70
2017-12-22T18:22:53.698Z,16.17
2017-12-22T18:25:21.158Z,17.20
2017-12-22T18:27:48.650Z,14.80
2017-12-22T18:30:16.692Z,17.10
2017-12-22T18:32:44.437Z,17.17
2017-12-22T18:35:11.890Z,15.90
2017-12-22T18:37:39.681Z,15.80
2017-12-22T18:40:07.144Z,16.10
2017-12-22T18:42:34.636Z,16.77
2017-12-22T18:45:02.432Z,17.60
2017-12-22T18:47:29.850Z,18.03
2017-12-22T18:49:57.551Z,14.40
2017-12-22T18:52:25.381Z,15.70
2017-12-22T18:54:53.210Z,12.70
2017-12-22T18:57:20.681Z,11.73
2017-12-22T18:59:48.661Z,13.10
2017-12-22T19:02:16.121Z,12.80
2017-12-22T19:04:43.665Z,13.03
2017-12-22T19:07:11.651Z,15.00
2017-12-22T19:09:39.118Z,14.00
2017-12-22T19:12:06.576Z,11.80
2017-12-22T19:14:34.335Z,13.60
2017-12-22T19:17:01.802Z,11.87
2017-12-22T19:19:29.271Z,13.17
2017-12-22T19:21:57.342Z,12.80
2017-12-22T19:24:24.796Z,19.67
2017-12-22T19:26:52.262Z,13.47
2017-12-22T19:29:19.899Z,14.07
2017-12-22T19:31:47.354Z,12.90
2017-12-22T19:34:14.817Z,13.73
2017-12-22T19:36:42.701Z,12.57
2017-12-22T19:39:10.189Z,12.43
2017-12-22T19:41:37.642Z,13.53
2017-12-22T19:44:05.398Z,13.50
2017-12-22T19:46:32.869Z,13.60
2017-12-22T19:49:00.338Z,12.57
2017-12-22T19:51:28.075Z,13.33
2017-12-22T19:53:55.528Z,12.40
2017-12-22T19:56:23.329Z,12.50
2017-12-22T19:58:51.081Z,9.67
2017-12-22T20:01:18.538Z,10.50
2017-12-22T20:03:46.007Z,10.43
2017-12-22T20:06:13.764Z,10.60
2017-12-22T20:08:41.228Z,11.27
2017-12-22T20:11:08.696Z,8.67
2017-12-22T20:13:36.748Z,9.23
2017-12-22T20:16:04.214Z,10.27
2017-12-22T20:18:31.678Z,9.27
2017-12-22T20:20:59.445Z,10.07
2017-12-22T20:23:26.897Z,10.97
2017-12-22T20:25:54.357Z,12.90
2017-12-22T20:28:22.156Z,10.63
2017-12-22T20:30:49.613Z,11.50
2017-12-22T20:33:17.065Z,11.17
2017-12-22T20:35:44.814Z,10.87
2017-12-22T20:38:12.262Z,10.27
2017-12-22T20:40:39.722Z,11.87
2017-12-22T20:43:07.305Z,21.37
2017-12-22T20:45:34.773Z,24.77
2017-12-22T20:48:02.233Z,11.93
2017-12-22T20:50:30.192Z,12.20
2017-12-22T20:52:57.655Z,12.47
2017-12-22T20:55:25.159Z,12.37
2017-12-22T20:57:53.512Z,12.20
2017-12-22T21:00:20.965Z,12.00
2017-12-22T21:02:48.425Z,11.40
2017-12-22T21:05:16.186Z,12.07
2017-12-22T21:07:43.642Z,11.20
2017-12-22T21:10:11.109Z,12.77
2017-12-22T21:12:38.847Z,12.00
2017-12-22T21:15:06.306Z,12.40
2017-12-22T21:17:33.777Z,11.00
2017-12-22T21:20:01.617Z,10.80
2017-12-22T21:22:29.087Z,9.93
2017-12-22T21:24:56.541Z,9.83
2017-12-22T21:27:24.247Z,8.43
2017-12-22T21:29:51.925Z,8.30
2017-12-22T21:32:19.372Z,8.90
2017-12-22T21:34:47.547Z,10.10
2017-12-22T21:37:15.005Z,9.00
2017-12-22T21:39:42.460Z,14.00
2017-12-22T21:42:11.154Z,12.00
2017-12-22T21:44:38.621Z,9.23
2017-12-22T21:47:06.096Z,10.00
2017-12-22T21:49:33.843Z,9.67
2017-12-22T21:52:01.315Z,10.20
2017-12-22T21:54:28.785Z,10.47
2017-12-22T21:56:56.832Z,9.90
2017-12-22T21:59:24.686Z,11.67
2017-12-22T22:01:52.141Z,10.47
2017-12-22T22:04:20.132Z,10.77
2017-12-22T22:06:47.583Z,9.80
2017-12-22T22:09:15.031Z,11.07
2017-12-22T22:11:43.049Z,10.57
2017-12-22T22:14:10.503Z,10.90
2017-12-22T22:16:37.953Z,10.60
2017-12-22T22:19:06.003Z,11.67
2017-12-22T22:21:33.460Z,11.80
2017-12-22T22:24:00.923Z,11.43
2017-12-22T22:26:28.812Z,12.10
2017-12-22T22:28:56.321Z,10.97
2017-12-22T22:31:23.777Z,12.83
2017-12-22T22:33:51.807Z,11.63
2017-12-22T22:36:19.271Z,10.30
2017-12-22T22:38:46.728Z,11.80
2017-12-22T22:41:14.490Z,12.07
2017-12-22T22:43:41.962Z,12.77
2017-12-22T22:46:09.518Z,12.83
2017-12-22T22:48:37.175Z,16.30
2017-12-22T22:51:04.641Z,12.20
2017-12-22T22:53:32.105Z,11.33
2017-12-22T22:55:59.826Z,13.13
2017-12-22T22:58:27.293Z,12.43
2017-12-22T23:00:55.385Z,12.40
2017-12-22T23:03:23.180Z,11.80
2017-12-22T23:05:50.631Z,12.50
2017-12-22T23:08:18.090Z,12.73
2017-12-22T23:10:45.857Z,12.27
2017-12-22T23:13:13.321Z,13.97
2017-12-22T23:15:40.778Z,13.97
2017-12-22T23:18:09.238Z,14.30
2017-12-22T23:20:36.693Z,14.73
2017-12-22T23:23:04.150Z,15.23
2017-12-22T23:25:31.836Z,13.10
2017-12-22T23:27:59.294Z,15.70
2017-12-22T23:30:26.749Z,13.57
2017-12-22T23:32:54.527Z,14.17
2017-12-22T23:35:21.985Z,13.87
2017-12-22T23:37:49.483Z,13.63
2017-12-22T23:40:17.214Z,14.30
2017-12-22T23:42:44.665Z,15.27
2017-12-22T23:45:12.125Z,15.17
2017-12-22T23:47:39.905Z,15.07
2017-12-22T23:50:07.359Z,12.77
2017-12-22T23:52:34.821Z,15.60
2017-12-22T23:55:02.592Z,14.70
2017-12-22T23:57:30.053Z,15.33
2017-12-22T23:59:57.514Z,16.10
